Webster Mills, Pennsylvania
Current Conditions -  °F | °C
As of 6:10 AM on Thursday 23 Oct 2014 (Local Time) from KHGR Reporting Station
Overcast Overcast  
Wind Chill: 51°   Ceiling: 3000
Heat Index: 51°   Visibility: 10mi
Dew Point: 41°   Wind: 21mph
Humidity: 68%   Direction: 310°NW
Pressure: 29.93"   Gusts: 29mph
Location:  39.973°N, 77.9661°W
Report Text: KHGR 231010Z AUTO 31018G25KT 10SM OVC030 11/05 A2993 RMK AO2 T01060050 TSNO
Loading
Personal Weather Stations






























Interactive Weather Map
Tropical Storm Tracking
New forecast layout! Learn more

10-Day Weather Forecast

Advertisements
Track Severe Weather on mobile